createdAt,value
2022-09-01T00:00:53.881Z,99056.05
2022-09-01T00:01:55.688Z,99054.72
2022-09-01T00:02:57.894Z,99053.46
2022-09-01T00:04:03.274Z,99054.02
2022-09-01T00:05:07.493Z,99052.39
2022-09-01T00:06:10.278Z,99051.27
2022-09-01T00:07:14.736Z,99053.16
2022-09-01T00:08:18.692Z,99051.77
2022-09-01T00:09:23.370Z,99050.85
2022-09-01T00:10:25.049Z,99051.30
2022-09-01T00:11:29.181Z,99053.47
2022-09-01T00:12:31.062Z,99053.98
2022-09-01T00:13:33.979Z,99052.94
2022-09-01T00:14:41.644Z,99055.64
2022-09-01T00:15:44.090Z,99057.81
2022-09-01T00:16:45.912Z,99057.82
2022-09-01T00:17:51.844Z,99055.66
2022-09-01T00:18:54.911Z,99057.09
2022-09-01T00:19:56.622Z,99057.14
2022-09-01T00:20:59.596Z,99056.06
2022-09-01T00:22:02.545Z,99058.79
2022-09-01T00:23:04.491Z,99055.16
2022-09-01T00:24:06.809Z,99057.55
2022-09-01T00:25:09.256Z,99060.91
2022-09-01T00:26:11.798Z,99060.91
2022-09-01T00:27:13.517Z,99059.60
2022-09-01T00:28:15.238Z,99062.22
2022-09-01T00:29:17.160Z,99062.16
2022-09-01T00:30:19.821Z,99061.20
2022-09-01T00:31:22.737Z,99061.46
2022-09-01T00:32:25.343Z,99061.91
2022-09-01T00:33:27.544Z,99061.39
2022-09-01T00:34:29.190Z,99062.58
2022-09-01T00:35:30.866Z,99061.34
2022-09-01T00:36:38.517Z,99063.63
2022-09-01T00:37:40.321Z,99062.08
2022-09-01T00:38:43.155Z,99058.96
2022-09-01T00:39:44.862Z,99064.52
2022-09-01T00:40:47.039Z,99060.55
2022-09-01T00:41:50.747Z,99062.84
2022-09-01T00:42:53.778Z,99061.70
2022-09-01T00:43:59.296Z,99062.13
2022-09-01T00:45:00.935Z,99060.13
2022-09-01T00:46:05.881Z,99061.22
2022-09-01T00:47:10.882Z,99058.55
2022-09-01T00:48:15.060Z,99064.24
2022-09-01T00:49:38.757Z,99060.91
2022-09-01T00:50:42.132Z,99061.35
2022-09-01T00:51:49.125Z,99061.69
2022-09-01T00:52:55.562Z,99058.92
2022-09-01T00:54:00.136Z,99056.38
2022-09-01T00:55:13.067Z,99055.23
2022-09-01T00:56:15.820Z,99057.15
2022-09-01T00:57:17.846Z,99055.96
2022-09-01T00:58:21.230Z,99054.29
2022-09-01T00:59:26.288Z,99053.64
2022-09-01T01:00:31.019Z,99055.36
2022-09-01T01:01:35.467Z,99053.00
2022-09-01T01:02:39.000Z,99053.91
2022-09-01T01:03:42.538Z,99049.58
2022-09-01T01:04:44.304Z,99051.70
2022-09-01T01:05:55.703Z,99051.16
2022-09-01T01:07:02.273Z,99051.70
2022-09-01T01:08:05.010Z,99049.59
2022-09-01T01:09:06.805Z,99051.60
2022-09-01T01:10:11.961Z,99056.05
2022-09-01T01:11:18.752Z,99053.73
2022-09-01T01:12:21.651Z,99054.60
2022-09-01T01:13:25.991Z,99054.70
2022-09-01T01:14:31.887Z,99055.04
2022-09-01T01:15:33.847Z,99055.10
2022-09-01T01:16:35.917Z,99055.98
2022-09-01T01:17:38.325Z,99054.61
2022-09-01T01:18:39.998Z,99054.02
2022-09-01T01:20:13.883Z,99052.99
2022-09-01T01:21:38.875Z,99055.38
2022-09-01T01:23:05.687Z,99063.52
2022-09-01T01:24:34.714Z,99063.04
2022-09-01T01:25:44.675Z,99058.77
2022-09-01T01:26:48.151Z,99061.45
2022-09-01T01:27:50.935Z,99059.81
2022-09-01T01:28:54.353Z,99060.08
2022-09-01T01:29:57.665Z,99063.56
2022-09-01T01:31:06.005Z,99059.16
2022-09-01T01:32:13.112Z,99060.38
2022-09-01T01:33:15.368Z,99060.42
2022-09-01T01:34:18.458Z,99057.65
2022-09-01T01:35:21.840Z,99059.50
2022-09-01T01:36:32.617Z,99056.90
2022-09-01T01:37:36.302Z,99055.21
2022-09-01T01:38:38.452Z,99059.34
2022-09-01T01:39:43.851Z,99057.10
2022-09-01T01:40:45.836Z,99056.84
2022-09-01T01:41:50.713Z,99052.95
2022-09-01T01:42:54.313Z,99053.45
2022-09-01T01:44:04.367Z,99052.58
2022-09-01T01:45:08.146Z,99049.33
2022-09-01T01:46:12.002Z,99048.29
2022-09-01T01:47:14.290Z,99051.33
2022-09-01T01:48:22.739Z,99049.04
2022-09-01T01:49:29.225Z,99048.01
2022-09-01T01:50:35.931Z,99050.00
2022-09-01T01:51:38.101Z,99048.86
2022-09-01T01:52:40.369Z,99047.94
2022-09-01T01:53:52.638Z,99042.19
2022-09-01T01:54:54.679Z,99039.37
2022-09-01T01:55:58.414Z,99042.42
2022-09-01T01:57:04.483Z,99038.23
2022-09-01T01:58:09.836Z,99036.29
2022-09-01T01:59:16.499Z,99034.08
2022-09-01T02:00:27.093Z,99034.41
2022-09-01T02:01:32.142Z,99034.57
2022-09-01T02:02:34.187Z,99033.66
2022-09-01T02:03:38.477Z,99033.55
2022-09-01T02:04:41.626Z,99038.16
2022-09-01T02:05:44.282Z,99035.23
2022-09-01T02:06:48.265Z,99037.13
2022-09-01T02:07:55.938Z,99036.10
2022-09-01T02:09:03.727Z,99035.89
2022-09-01T02:10:06.178Z,99038.59
2022-09-01T02:11:08.886Z,99036.86
2022-09-01T02:12:11.058Z,99034.80
2022-09-01T02:13:20.876Z,99038.94
2022-09-01T02:14:23.472Z,99036.30
2022-09-01T02:15:25.533Z,99034.17
2022-09-01T02:16:30.236Z,99033.31
2022-09-01T02:17:32.052Z,99030.13
2022-09-01T02:18:37.943Z,99029.70
2022-09-01T02:19:43.265Z,99032.57
2022-09-01T02:20:50.308Z,99030.58
2022-09-01T02:21:56.051Z,99030.19
2022-09-01T02:22:57.734Z,99031.82
2022-09-01T02:24:03.626Z,99028.59
2022-09-01T02:25:06.653Z,99032.78
2022-09-01T02:26:16.685Z,99032.99
2022-09-01T02:27:23.273Z,99033.96
2022-09-01T02:28:28.505Z,99030.66
2022-09-01T02:29:30.352Z,99031.10
2022-09-01T02:30:37.775Z,99030.19
2022-09-01T02:31:39.866Z,99029.48
2022-09-01T02:32:41.856Z,99027.15
2022-09-01T02:33:47.017Z,99028.72
2022-09-01T02:34:53.578Z,99032.90
2022-09-01T02:36:00.883Z,99032.79
2022-09-01T02:37:03.270Z,99032.91
2022-09-01T02:38:05.317Z,99034.79
2022-09-01T02:39:08.137Z,99033.39
2022-09-01T02:40:10.550Z,99034.20
2022-09-01T02:41:14.288Z,99035.72
2022-09-01T02:42:16.301Z,99031.43
2022-09-01T02:43:20.349Z,99035.18
2022-09-01T02:44:23.095Z,99032.36
2022-09-01T02:45:24.848Z,99033.70
2022-09-01T02:46:26.740Z,99033.39
2022-09-01T02:47:28.553Z,99035.70
2022-09-01T02:48:32.949Z,99035.10
2022-09-01T02:49:36.026Z,99033.38
2022-09-01T02:50:39.681Z,99036.95
2022-09-01T02:51:47.238Z,99037.96
2022-09-01T02:52:50.985Z,99039.98
2022-09-01T02:53:53.424Z,99038.52
2022-09-01T02:54:55.550Z,99039.37
2022-09-01T02:55:59.494Z,99039.92
2022-09-01T02:57:01.426Z,99039.38
2022-09-01T02:58:04.330Z,99039.59
2022-09-01T02:59:06.105Z,99039.85
2022-09-01T03:00:20.750Z,99038.45
2022-09-01T03:01:31.471Z,99037.68
2022-09-01T03:02:35.896Z,99037.67
2022-09-01T03:03:38.935Z,99035.94
2022-09-01T03:04:41.181Z,99035.08
2022-09-01T03:05:43.903Z,99031.81
2022-09-01T03:06:46.826Z,99032.73
2022-09-01T03:07:54.081Z,99034.19
2022-09-01T03:09:00.159Z,99033.70
2022-09-01T03:10:03.336Z,99032.46
2022-09-01T03:11:13.289Z,99032.40
2022-09-01T03:12:15.402Z,99035.20
2022-09-01T03:13:21.875Z,99035.91
2022-09-01T03:14:24.324Z,99035.95
2022-09-01T03:15:27.394Z,99035.95
2022-09-01T03:16:33.448Z,99038.59
2022-09-01T03:17:35.333Z,99036.91
2022-09-01T03:18:38.427Z,99036.10
2022-09-01T03:19:44.290Z,99036.96
2022-09-01T03:20:48.357Z,99034.79
2022-09-01T03:21:50.137Z,99035.49
2022-09-01T03:22:57.936Z,99033.16
2022-09-01T03:24:02.002Z,99036.90
2022-09-01T03:25:04.595Z,99037.80
2022-09-01T03:26:06.284Z,99035.31
2022-09-01T03:27:08.916Z,99040.27
2022-09-01T03:28:13.066Z,99040.02
2022-09-01T03:29:15.395Z,99038.06
2022-09-01T03:30:17.526Z,99036.70
2022-09-01T03:31:21.565Z,99034.31
2022-09-01T03:32:24.650Z,99035.02
2022-09-01T03:33:28.638Z,99036.10
2022-09-01T03:34:34.377Z,99036.90
2022-09-01T03:35:36.787Z,99035.01
2022-09-01T03:36:39.829Z,99036.13
2022-09-01T03:37:44.326Z,99035.46
2022-09-01T03:38:51.376Z,99032.13
2022-09-01T03:39:56.427Z,99032.39
2022-09-01T03:41:04.440Z,99033.30
2022-09-01T03:42:09.032Z,99033.30
2022-09-01T03:43:11.977Z,99034.59
2022-09-01T03:44:16.214Z,99032.39
2022-09-01T03:45:20.392Z,99030.75
2022-09-01T03:46:24.323Z,99029.83
2022-09-01T03:47:27.283Z,99030.38
2022-09-01T03:48:32.210Z,99029.45
2022-09-01T03:49:34.066Z,99032.27
2022-09-01T03:50:47.357Z,99033.50
2022-09-01T03:51:49.260Z,99031.89
2022-09-01T03:52:58.695Z,99032.47
2022-09-01T03:54:00.736Z,99035.64
2022-09-01T03:55:02.471Z,99036.78
2022-09-01T03:56:05.477Z,99038.84
2022-09-01T03:57:09.944Z,99035.36
2022-09-01T03:58:18.953Z,99038.06
2022-09-01T03:59:22.617Z,99040.38
2022-09-01T04:00:29.797Z,99042.00
2022-09-01T04:01:37.893Z,99040.54
2022-09-01T04:02:40.017Z,99041.02
2022-09-01T04:03:42.664Z,99042.02
2022-09-01T04:04:44.376Z,99038.27
2022-09-01T04:05:46.197Z,99036.27
2022-09-01T04:06:48.058Z,99039.52
2022-09-01T04:07:50.310Z,99041.45
2022-09-01T04:08:57.768Z,99045.45
2022-09-01T04:09:59.484Z,99045.73
2022-09-01T04:11:10.612Z,99042.20
2022-09-01T04:12:15.724Z,99043.16
2022-09-01T04:13:32.277Z,99040.89
2022-09-01T04:14:34.942Z,99039.10
2022-09-01T04:15:38.489Z,99042.55
2022-09-01T04:16:59.201Z,99041.63
2022-09-01T04:18:10.582Z,99041.05
2022-09-01T04:19:25.590Z,99041.43
2022-09-01T04:20:28.587Z,99043.77
2022-09-01T04:21:31.951Z,99041.77
2022-09-01T04:22:35.414Z,99040.63
2022-09-01T04:23:37.286Z,99043.70
2022-09-01T04:24:45.419Z,99041.65
2022-09-01T04:25:50.377Z,99042.36
2022-09-01T04:26:54.534Z,99043.42
2022-09-01T04:27:57.091Z,99043.21
2022-09-01T04:28:59.180Z,99045.92
2022-09-01T04:30:01.466Z,99048.64
2022-09-01T04:31:09.197Z,99050.32
2022-09-01T04:32:13.100Z,99050.65
2022-09-01T04:33:18.547Z,99050.49
2022-09-01T04:34:22.705Z,99046.34
2022-09-01T04:35:32.964Z,99045.31
2022-09-01T04:36:43.543Z,99044.90
2022-09-01T04:37:46.173Z,99045.61
2022-09-01T04:38:54.491Z,99047.24
2022-09-01T04:39:57.668Z,99043.89
2022-09-01T04:41:06.515Z,99047.16
2022-09-01T04:42:09.246Z,99041.75
2022-09-01T04:43:11.336Z,99046.20
2022-09-01T04:44:19.195Z,99046.20
2022-09-01T04:45:24.900Z,99045.45
2022-09-01T04:46:31.347Z,99046.39
2022-09-01T04:47:36.253Z,99047.69
2022-09-01T04:48:46.000Z,99046.79
2022-09-01T04:49:49.192Z,99048.52
2022-09-01T04:50:52.054Z,99047.92
2022-09-01T04:52:00.653Z,99048.14
2022-09-01T04:53:06.125Z,99046.87
2022-09-01T04:54:14.287Z,99044.50
2022-09-01T04:55:17.852Z,99049.30
2022-09-01T04:56:22.943Z,99050.45
2022-09-01T04:57:50.058Z,99051.02
2022-09-01T04:58:56.475Z,99052.64
2022-09-01T04:59:58.521Z,99051.99
2022-09-01T05:01:06.332Z,99051.63
2022-09-01T05:02:09.525Z,99050.53
2022-09-01T05:03:11.542Z,99048.59
2022-09-01T05:04:34.302Z,99046.27
2022-09-01T05:05:45.143Z,99047.96
2022-09-01T05:06:50.021Z,99048.50
2022-09-01T05:07:55.308Z,99047.54
2022-09-01T05:08:57.909Z,99047.05
2022-09-01T05:10:19.917Z,99049.64
2022-09-01T05:12:15.729Z,99048.46
2022-09-01T05:13:23.495Z,99050.91
2022-09-01T05:14:26.032Z,99050.98
2022-09-01T05:15:29.699Z,99053.62
2022-09-01T05:16:32.445Z,99054.66
2022-09-01T05:17:38.556Z,99055.40
2022-09-01T05:18:47.481Z,99054.87
2022-09-01T05:19:50.576Z,99053.42
2022-09-01T05:20:53.263Z,99057.63
2022-09-01T05:21:58.321Z,99059.21
2022-09-01T05:23:00.518Z,99055.80
2022-09-01T05:24:05.025Z,99059.80
2022-09-01T05:25:13.291Z,99056.66
2022-09-01T05:26:22.190Z,99057.97
2022-09-01T05:27:24.284Z,99059.52
2022-09-01T05:28:27.071Z,99057.42
2022-09-01T05:29:29.651Z,99057.69
2022-09-01T05:30:36.844Z,99057.91
2022-09-01T05:31:41.289Z,99057.21
2022-09-01T05:32:43.622Z,99058.52
2022-09-01T05:33:48.289Z,99057.54
2022-09-01T05:34:51.826Z,99055.48
2022-09-01T05:36:01.169Z,99057.52
2022-09-01T05:37:06.414Z,99055.64
2022-09-01T05:38:11.002Z,99054.83
2022-09-01T05:39:12.937Z,99054.02
2022-09-01T05:40:16.346Z,99050.88
2022-09-01T05:41:21.041Z,99050.49
2022-09-01T05:42:22.988Z,99051.34
2022-09-01T05:43:27.802Z,99054.04
2022-09-01T05:44:29.677Z,99052.30
2022-09-01T05:45:44.916Z,99055.65
2022-09-01T05:46:55.808Z,99056.52
2022-09-01T05:47:59.714Z,99058.45
2022-09-01T05:49:02.616Z,99056.71
2022-09-01T05:50:11.016Z,99056.54
2022-09-01T05:51:42.660Z,99056.33
2022-09-01T05:52:44.835Z,99055.76
2022-09-01T05:53:51.349Z,99054.84
2022-09-01T05:54:55.454Z,99053.85
2022-09-01T05:55:57.457Z,99054.56
2022-09-01T05:57:17.530Z,99055.10
2022-09-01T05:58:21.505Z,99059.31
2022-09-01T05:59:24.868Z,99050.03
2022-09-01T06:00:34.712Z,99050.60
2022-09-01T06:01:41.157Z,99052.11
2022-09-01T06:02:43.400Z,99053.14
2022-09-01T06:03:55.653Z,99057.79
2022-09-01T06:05:00.271Z,99053.66
2022-09-01T06:06:09.249Z,99056.95
2022-09-01T06:07:16.639Z,99058.89
2022-09-01T06:08:28.951Z,99057.20
2022-09-01T06:09:30.779Z,99056.16
2022-09-01T06:10:35.504Z,99057.02
2022-09-01T06:11:38.065Z,99059.06
2022-09-01T06:12:40.739Z,99056.30
2022-09-01T06:13:42.625Z,99056.71
2022-09-01T06:14:46.185Z,99058.17
2022-09-01T06:15:51.026Z,99059.64
2022-09-01T06:16:54.197Z,99059.42
2022-09-01T06:17:57.408Z,99055.52
2022-09-01T06:18:59.549Z,99061.08
2022-09-01T06:20:01.991Z,99059.48
2022-09-01T06:21:08.356Z,99059.79
2022-09-01T06:22:11.237Z,99062.67
2022-09-01T06:23:15.275Z,99060.66
2022-09-01T06:24:18.103Z,99064.08
2022-09-01T06:25:21.322Z,99064.55
2022-09-01T06:26:27.646Z,99063.27
2022-09-01T06:27:30.082Z,99065.70
2022-09-01T06:28:31.893Z,99063.39
2022-09-01T06:29:34.186Z,99066.25
2022-09-01T06:30:36.497Z,99068.05
2022-09-01T06:31:43.363Z,99072.10
2022-09-01T06:32:45.549Z,99070.99
2022-09-01T06:33:48.344Z,99070.98
2022-09-01T06:34:51.252Z,99070.85
2022-09-01T06:35:53.998Z,99068.57
2022-09-01T06:36:56.319Z,99073.16
2022-09-01T06:38:02.140Z,99073.26
2022-09-01T06:39:26.512Z,99072.02
2022-09-01T06:40:29.085Z,99074.70
2022-09-01T06:41:31.531Z,99073.98
2022-09-01T06:42:35.267Z,99076.56
2022-09-01T06:43:37.127Z,99078.48
2022-09-01T06:44:41.984Z,99078.00
2022-09-01T06:45:54.194Z,99081.71
2022-09-01T06:46:57.194Z,99082.25
2022-09-01T06:48:01.285Z,99083.69
2022-09-01T06:49:03.941Z,99082.43
2022-09-01T06:50:08.573Z,99082.27
2022-09-01T06:51:16.117Z,99086.06
2022-09-01T06:52:21.235Z,99084.94
2022-09-01T06:54:46.105Z,99083.41
2022-09-01T06:55:50.094Z,99081.05
2022-09-01T06:56:53.527Z,99081.77
2022-09-01T06:58:03.937Z,99083.16
2022-09-01T06:59:07.978Z,99082.54
2022-09-01T07:00:20.872Z,99081.84
2022-09-01T07:01:24.307Z,99081.91
2022-09-01T07:02:27.320Z,99082.79
2022-09-01T07:04:20.219Z,99085.60
2022-09-01T07:07:01.812Z,99088.80
2022-09-01T07:10:18.578Z,99086.81
2022-09-01T07:13:07.362Z,99088.23
2022-09-01T07:14:16.674Z,99087.91
2022-09-01T07:16:51.789Z,99093.89
2022-09-01T07:17:58.281Z,99096.40
2022-09-01T07:19:02.203Z,99098.09
2022-09-01T07:21:40.951Z,99102.33
2022-09-01T07:23:14.183Z,99100.79
2022-09-01T07:24:10.419Z,99098.90
2022-09-01T07:25:14.309Z,99101.64
2022-09-01T07:26:47.277Z,99100.30
2022-09-01T07:27:50.550Z,99102.73
2022-09-01T07:29:00.939Z,99100.70
2022-09-01T07:30:03.803Z,99098.51
2022-09-01T07:32:47.539Z,99097.26
2022-09-01T07:33:54.319Z,99099.02
2022-09-01T07:34:56.808Z,99098.36
2022-09-01T07:42:56.886Z,99100.05
2022-09-01T07:42:57.573Z,99085.39
2022-09-01T07:43:37.601Z,99092.68
2022-09-01T07:45:35.211Z,99091.48
2022-09-01T07:46:40.409Z,99094.92
2022-09-01T07:47:53.580Z,99092.79
2022-09-01T07:49:29.635Z,99089.63
2022-09-01T07:51:44.129Z,99091.89
2022-09-01T07:52:49.579Z,99093.79
2022-09-01T07:53:51.361Z,99088.80
2022-09-01T07:54:53.169Z,99090.08
2022-09-01T07:55:56.354Z,99091.15
2022-09-01T07:56:58.206Z,99090.67
2022-09-01T07:57:59.954Z,99090.40
2022-09-01T07:59:02.248Z,99086.89
2022-09-01T08:00:06.526Z,99090.68
2022-09-01T08:01:24.406Z,99097.94
2022-09-01T08:02:28.002Z,99096.00
2022-09-01T08:03:31.062Z,99093.18
2022-09-01T08:04:34.517Z,99096.30
2022-09-01T08:05:36.442Z,99093.95
2022-09-01T08:06:38.750Z,99092.46
2022-09-01T08:07:57.653Z,99089.66
2022-09-01T08:09:12.259Z,99091.88
2022-09-01T08:10:33.593Z,99092.11
2022-09-01T08:11:58.572Z,99092.11
2022-09-01T08:12:58.341Z,99093.72
2022-09-01T08:14:01.293Z,99092.48
2022-09-01T08:15:13.874Z,99094.80
2022-09-01T08:16:39.319Z,99095.09
2022-09-01T08:17:52.184Z,99098.91
2022-09-01T08:18:57.079Z,99095.45
2022-09-01T08:20:03.312Z,99096.14
2022-09-01T08:21:27.013Z,99100.66
2022-09-01T08:22:38.090Z,99100.40
2022-09-01T08:23:54.898Z,99099.41
2022-09-01T08:24:57.094Z,99100.95
2022-09-01T08:25:58.935Z,99095.57
2022-09-01T08:27:00.594Z,99091.56
2022-09-01T08:28:06.894Z,99096.39
2022-09-01T08:29:09.541Z,99092.13
2022-09-01T08:30:15.845Z,99098.31
2022-09-01T08:31:20.284Z,99094.11
2022-09-01T08:32:22.972Z,99097.98
2022-09-01T08:33:26.066Z,99099.77
2022-09-01T08:34:28.078Z,99101.05
2022-09-01T08:35:29.801Z,99101.06
2022-09-01T08:36:35.413Z,99102.77
2022-09-01T08:37:38.404Z,99100.74
2022-09-01T08:38:41.435Z,99096.80
2022-09-01T08:39:43.683Z,99098.86
2022-09-01T08:40:56.370Z,99096.14
2022-09-01T08:42:20.182Z,99098.29
2022-09-01T08:43:36.975Z,99097.48
2022-09-01T08:44:55.170Z,99101.59
2022-09-01T08:46:04.041Z,99095.96
2022-09-01T08:47:15.327Z,99091.70
2022-09-01T08:49:51.350Z,99091.05
2022-09-01T08:51:35.162Z,99095.78
2022-09-01T08:52:44.698Z,99099.69
2022-09-01T08:53:59.814Z,99097.67
2022-09-01T08:55:31.918Z,99096.91
2022-09-01T08:56:37.489Z,99096.35
2022-09-01T08:57:44.280Z,99097.97
2022-09-01T09:01:04.874Z,99098.44
2022-09-01T09:02:33.801Z,99097.73
2022-09-01T09:03:54.014Z,99098.05
2022-09-01T09:04:58.673Z,99097.48
2022-09-01T09:06:41.835Z,99095.06
2022-09-01T09:08:17.241Z,99094.51
2022-09-01T09:09:19.273Z,99097.07
2022-09-01T09:11:01.438Z,99092.65
2022-09-01T09:12:10.831Z,99090.24
2022-09-01T09:13:40.835Z,99093.08
2022-09-01T09:15:06.969Z,99093.08
2022-09-01T09:16:26.162Z,99095.85
2022-09-01T09:17:37.298Z,99097.29
2022-09-01T09:18:55.861Z,99092.80
2022-09-01T09:19:58.052Z,99095.18
2022-09-01T09:21:27.677Z,99092.71
2022-09-01T09:22:29.398Z,99086.30
2022-09-01T09:23:39.397Z,99090.15
2022-09-01T09:25:08.425Z,99089.17
2022-09-01T09:26:10.105Z,99089.42
2022-09-01T09:27:30.740Z,99090.10
2022-09-01T09:28:32.466Z,99090.20
2022-09-01T09:29:34.425Z,99087.23
2022-09-01T09:30:38.389Z,99088.02
2022-09-01T09:31:49.924Z,99090.18
2022-09-01T09:34:39.718Z,99086.80
2022-09-01T09:35:44.246Z,99086.73
2022-09-01T09:36:53.893Z,99086.47
2022-09-01T09:38:29.054Z,99083.12
2022-09-01T09:39:31.005Z,99079.61
2022-09-01T09:40:47.892Z,99083.71
2022-09-01T09:42:12.082Z,99078.25
2022-09-01T09:43:16.145Z,99081.21
2022-09-01T09:44:29.413Z,99083.33
2022-09-01T09:45:41.614Z,99083.64
2022-09-01T09:46:47.473Z,99085.94
2022-09-01T09:47:49.599Z,99082.66
2022-09-01T09:49:15.381Z,99085.61
2022-09-01T09:50:17.427Z,99089.48
2022-09-01T09:51:22.774Z,99087.64
2022-09-01T09:52:24.509Z,99090.12
2022-09-01T09:53:29.955Z,99089.27
2022-09-01T09:54:33.852Z,99091.14
2022-09-01T09:55:35.779Z,99088.80
2022-09-01T09:56:37.638Z,99089.41
2022-09-01T09:57:41.768Z,99090.75
2022-09-01T09:58:46.693Z,99091.38
2022-09-01T10:00:00.808Z,99089.32
2022-09-01T10:01:05.889Z,99091.51
2022-09-01T10:02:33.793Z,99087.92
2022-09-01T10:03:45.047Z,99085.59
2022-09-01T10:04:46.814Z,99083.38
2022-09-01T10:05:52.828Z,99085.48
2022-09-01T10:06:55.578Z,99084.34
2022-09-01T10:07:58.403Z,99087.56
2022-09-01T10:09:08.261Z,99084.70
2022-09-01T10:10:40.402Z,99081.20
2022-09-01T10:11:48.277Z,99082.81
2022-09-01T10:12:56.677Z,99082.38
2022-09-01T10:13:58.915Z,99080.55
2022-09-01T10:15:07.100Z,99080.59
2022-09-01T10:16:26.881Z,99081.27
2022-09-01T10:17:35.933Z,99083.20
2022-09-01T10:18:41.798Z,99083.19
2022-09-01T10:19:54.207Z,99080.55
2022-09-01T10:21:04.234Z,99080.88
2022-09-01T10:22:08.329Z,99078.34
2022-09-01T10:23:15.251Z,99076.07
2022-09-01T10:24:32.045Z,99066.83
2022-09-01T10:25:35.666Z,99069.06
2022-09-01T10:26:41.250Z,99073.40
2022-09-01T10:27:51.160Z,99074.08
2022-09-01T10:29:01.803Z,99082.05
2022-09-01T10:30:19.809Z,99079.21
2022-09-01T10:31:22.847Z,99076.60
2022-09-01T10:32:50.800Z,99074.86
2022-09-01T10:33:58.641Z,99080.19
2022-09-01T10:35:03.177Z,99079.14
2022-09-01T10:36:07.833Z,99077.48
2022-09-01T10:37:15.890Z,99078.50
2022-09-01T10:38:23.198Z,99074.24
2022-09-01T10:39:30.514Z,99077.77
2022-09-01T10:40:49.648Z,99076.35
2022-09-01T10:41:59.733Z,99074.39
2022-09-01T10:43:26.157Z,99073.06
2022-09-01T10:44:58.205Z,99074.64
2022-09-01T10:46:06.048Z,99076.08
2022-09-01T10:47:14.696Z,99081.28
2022-09-01T10:48:30.487Z,99083.36
2022-09-01T10:49:32.569Z,99083.48
2022-09-01T10:50:35.997Z,99085.84
2022-09-01T10:51:50.466Z,99086.84
2022-09-01T10:52:57.121Z,99087.44
2022-09-01T10:54:03.540Z,99086.23
2022-09-01T10:55:23.993Z,99087.96
2022-09-01T10:56:44.378Z,99089.48
2022-09-01T10:59:29.804Z,99087.13
2022-09-01T10:59:43.301Z,99083.13
2022-09-01T11:01:10.680Z,99085.71
2022-09-01T11:02:28.123Z,99088.38
2022-09-01T11:03:54.355Z,99086.70
2022-09-01T11:04:58.218Z,99088.27
2022-09-01T11:06:12.305Z,99088.23
2022-09-01T11:07:44.372Z,99088.09
2022-09-01T11:09:03.682Z,99091.08
2022-09-01T11:10:37.021Z,99088.73
2022-09-01T11:11:51.892Z,99092.02
2022-09-01T11:13:10.335Z,99089.92
2022-09-01T11:14:23.639Z,99087.03
2022-09-01T11:15:39.131Z,99084.20
2022-09-01T11:16:46.705Z,99083.81
2022-09-01T11:17:52.135Z,99084.36
2022-09-01T11:18:55.250Z,99087.27
2022-09-01T11:20:20.432Z,99088.56
2022-09-01T11:21:33.185Z,99087.27
2022-09-01T11:22:46.577Z,99088.64
2022-09-01T11:23:48.301Z,99089.32
2022-09-01T11:25:11.848Z,99091.94
2022-09-01T11:26:32.525Z,99091.98
2022-09-01T11:27:49.156Z,99091.52
2022-09-01T11:28:51.158Z,99090.23
2022-09-01T11:30:09.128Z,99091.44
2022-09-01T11:31:20.630Z,99088.50
2022-09-01T11:32:27.994Z,99089.88
2022-09-01T11:33:29.560Z,99087.04
2022-09-01T11:34:31.816Z,99089.00
2022-09-01T11:35:33.716Z,99085.33
2022-09-01T11:36:48.382Z,99083.35
2022-09-01T11:37:55.255Z,99080.84
2022-09-01T11:39:17.570Z,99081.05
2022-09-01T11:40:29.628Z,99081.52
2022-09-01T11:41:40.203Z,99078.48
2022-09-01T11:42:46.807Z,99082.02
2022-09-01T11:43:54.220Z,99081.14
2022-09-01T11:45:04.612Z,99077.64
2022-09-01T11:46:25.063Z,99080.16
2022-09-01T11:47:55.228Z,99081.98
2022-09-01T11:48:59.746Z,99080.06
2022-09-01T11:50:34.565Z,99073.89
2022-09-01T11:51:47.885Z,99075.34
2022-09-01T11:52:57.064Z,99075.09
2022-09-01T11:54:00.678Z,99076.34
2022-09-01T11:55:04.722Z,99077.52
2022-09-01T11:56:20.112Z,99079.70
2022-09-01T11:57:31.755Z,99079.02
2022-09-01T11:58:39.179Z,99079.98
2022-09-01T11:59:43.866Z,99080.39
2022-09-01T12:00:45.540Z,99079.77
2022-09-01T12:01:47.287Z,99078.69
2022-09-01T12:02:52.173Z,99079.09
2022-09-01T12:03:54.303Z,99078.13
2022-09-01T12:04:57.148Z,99075.17
2022-09-01T12:06:04.008Z,99075.02
2022-09-01T12:07:11.642Z,99070.92
2022-09-01T12:08:18.331Z,99071.75
2022-09-01T12:09:44.034Z,99072.31
2022-09-01T12:10:47.066Z,99070.05
2022-09-01T12:11:49.026Z,99068.23
2022-09-01T12:13:02.523Z,99067.56
2022-09-01T12:14:11.444Z,99068.26
2022-09-01T12:15:25.936Z,99069.30
2022-09-01T12:16:29.965Z,99067.77
2022-09-01T12:17:31.660Z,99069.91
2022-09-01T12:18:39.664Z,99068.30
2022-09-01T12:19:41.293Z,99066.40
2022-09-01T12:20:43.209Z,99068.04
2022-09-01T12:21:59.845Z,99063.67
2022-09-01T12:23:03.588Z,99061.48
2022-09-01T12:24:21.799Z,99060.14
2022-09-01T12:25:29.209Z,99058.64
2022-09-01T12:26:31.001Z,99059.27
2022-09-01T12:27:33.634Z,99059.88
2022-09-01T12:28:36.181Z,99059.42
2022-09-01T12:29:38.875Z,99056.59
2022-09-01T12:30:44.703Z,99052.13
2022-09-01T12:31:52.471Z,99051.98
2022-09-01T12:34:32.953Z,99056.52
2022-09-01T12:35:34.595Z,99051.20
2022-09-01T12:36:37.195Z,99051.15
2022-09-01T12:37:38.945Z,99053.02
2022-09-01T12:38:40.680Z,99048.03
2022-09-01T12:39:49.007Z,99051.00
2022-09-01T12:40:54.453Z,99050.45
2022-09-01T12:42:07.343Z,99045.16
2022-09-01T12:43:09.020Z,99044.49
2022-09-01T12:44:31.433Z,99040.33
2022-09-01T12:45:45.678Z,99039.73
2022-09-01T12:46:47.478Z,99036.35
2022-09-01T12:47:50.642Z,99032.39
2022-09-01T12:48:52.634Z,99032.07
2022-09-01T12:49:55.686Z,99029.29
2022-09-01T12:51:04.745Z,99032.48
2022-09-01T12:52:28.168Z,99031.52
2022-09-01T12:53:36.741Z,99031.65
2022-09-01T12:54:39.714Z,99032.70
2022-09-01T12:56:17.070Z,99038.17
2022-09-01T12:57:35.453Z,99034.45
2022-09-01T12:58:37.209Z,99042.20
2022-09-01T12:59:38.898Z,99040.86
2022-09-01T13:00:58.440Z,99039.38
2022-09-01T13:02:26.994Z,99036.98
2022-09-01T13:03:30.708Z,99036.09
2022-09-01T13:04:34.388Z,99038.98
2022-09-01T13:06:03.796Z,99037.27
2022-09-01T13:07:07.693Z,99042.02
2022-09-01T13:08:14.676Z,99037.91
2022-09-01T13:09:16.638Z,99032.79
2022-09-01T13:10:18.674Z,99029.92
2022-09-01T13:11:20.750Z,99031.50
2022-09-01T13:12:22.412Z,99030.10
2022-09-01T13:13:26.866Z,99037.00
2022-09-01T13:14:29.870Z,99039.15
2022-09-01T13:15:32.638Z,99040.79
2022-09-01T13:16:35.623Z,99041.88
2022-09-01T13:17:38.401Z,99044.42
2022-09-01T13:20:05.742Z,99043.64
2022-09-01T13:21:07.942Z,99046.11
2022-09-01T13:22:10.459Z,99038.89
2022-09-01T13:23:12.830Z,99036.99
2022-09-01T13:24:14.751Z,99033.52
2022-09-01T13:25:20.267Z,99033.51
2022-09-01T13:26:22.568Z,99033.59
2022-09-01T13:27:24.381Z,99031.80
2022-09-01T13:28:27.011Z,99031.57
2022-09-01T13:29:28.750Z,99029.95
2022-09-01T13:30:30.470Z,99034.41
2022-09-01T13:31:32.659Z,99030.27
2022-09-01T13:32:34.944Z,99036.31
2022-09-01T13:34:09.300Z,99033.85
2022-09-01T13:34:58.644Z,99031.77
2022-09-01T13:36:42.816Z,99032.73
2022-09-01T13:37:24.379Z,99031.61
2022-09-01T13:38:26.168Z,99033.20
2022-09-01T13:39:27.845Z,99027.67
2022-09-01T13:40:31.065Z,99025.67